Time;durP1;ratioP1;P1;durP2;ratioP2;P2;SDS_P1;SDS_P2;PMS_P1;PMS_P2;Temp;Humidity;BMP_temperature;BMP_pressure;BME280_temperature;BME280_humidity;BME280_pressure;Samples;Min_cycle;Max_cycle;Signal;HPM_P1;HPM_P2
2023/09/20 14:51:26;;;;;;;1.58;0.60;;;24.00;90.50;;;;;;6456890;27;20301;-60
2023/09/20 14:54:28;;;;;;;1.17;0.70;;;24.20;70.50;;;;;;6431547;27;20049;-59
2023/09/20 14:57:33;;;;;;;1.50;0.65;;;23.80;68.70;;;;;;6431932;27;20845;-59
2023/09/20 15:00:39;;;;;;;1.67;0.77;;;24.00;67.50;;;;;;6429766;27;20121;-58
2023/09/20 15:03:45;;;;;;;3.08;0.80;;;24.30;66.60;;;;;;6430577;27;20063;-60
2023/09/20 15:06:48;;;;;;;1.60;0.80;;;24.50;65.80;;;;;;6407300;27;20043;-56
2023/09/20 15:09:49;;;;;;;1.35;0.60;;;24.60;65.00;;;;;;6405755;27;20126;-58
2023/09/20 15:12:57;;;;;;;2.58;0.85;;;24.70;64.00;;;;;;6402684;27;20047;-58
2023/09/20 15:15:58;;;;;;;2.13;0.90;;;24.80;63.50;;;;;;6388605;27;20045;-55
2023/09/20 15:19:01;;;;;;;2.35;1.13;;;24.90;64.00;;;;;;6405181;27;20621;-58
2023/09/20 15:22:04;;;;;;;2.72;0.80;;;24.90;62.70;;;;;;6403508;27;20038;-58
2023/09/20 15:25:14;;;;;;;1.92;0.60;;;25.10;62.40;;;;;;6403773;27;20046;-59
2023/09/20 15:28:16;;;;;;;1.98;0.80;;;25.50;62.50;;;;;;6404769;27;20030;-60
2023/09/20 15:31:19;;;;;;;1.42;0.70;;;25.20;62.00;;;;;;6403078;27;20087;-59
2023/09/20 15:34:22;;;;;;;2.72;0.80;;;25.30;61.90;;;;;;6401049;27;20053;-58
2023/09/20 15:37:26;;;;;;;2.15;0.90;;;25.10;61.70;;;;;;6402161;27;20050;-58
2023/09/20 15:40:28;;;;;;;1.58;0.88;;;24.90;61.10;;;;;;6400896;27;20517;-59
2023/09/20 15:43:33;;;;;;;2.10;0.73;;;24.90;61.00;;;;;;6401831;27;20034;-59
2023/09/20 15:46:35;;;;;;;1.65;0.77;;;25.10;61.00;;;;;;6399078;27;20474;-59
2023/09/20 15:49:37;;;;;;;2.60;0.93;;;25.30;61.20;;;;;;6396304;27;20043;-60
2023/09/20 15:52:40;;;;;;;1.98;1.00;;;25.10;60.90;;;;;;6398585;27;20043;-59
2023/09/20 15:55:44;;;;;;;1.73;1.00;;;25.30;60.90;;;;;;6398855;27;20049;-58
2023/09/20 15:58:46;;;;;;;2.13;0.85;;;25.10;60.80;;;;;;6375275;27;20699;-59
2023/09/20 16:01:47;;;;;;;1.30;0.68;;;25.30;60.80;;;;;;6362254;27;20039;-58
2023/09/20 16:04:51;;;;;;;2.80;0.70;;;25.10;60.60;;;;;;6357355;28;20035;-59
2023/09/20 16:07:54;;;;;;;2.10;0.73;;;25.30;60.70;;;;;;6354195;28;20043;-59
2023/09/20 16:10:55;;;;;;;1.17;0.60;;;25.20;60.80;;;;;;6352654;28;20055;-58
2023/09/20 16:13:59;;;;;;;2.67;0.60;;;25.20;60.50;;;;;;6353134;28;20698;-59
2023/09/20 16:17:03;;;;;;;0.98;0.52;;;25.30;60.70;;;;;;6355908;28;20043;-60
2023/09/20 16:20:05;;;;;;;2.50;0.60;;;25.10;60.40;;;;;;6356299;27;20847;-59
2023/09/20 16:23:08;;;;;;;0.90;0.52;;;25.40;60.60;;;;;;6382264;27;20611;-59
2023/09/20 16:26:09;;;;;;;0.80;0.40;;;25.30;60.40;;;;;;6383357;27;20698;-60
2023/09/20 16:29:15;;;;;;;1.17;0.70;;;25.20;60.80;;;;;;6382857;27;20713;-60
2023/09/20 16:32:18;;;;;;;1.63;0.50;;;25.10;60.80;;;;;;6382647;27;20042;-60
2023/09/20 16:35:21;;;;;;;0.73;0.47;;;25.20;60.70;;;;;;6365582;27;20036;-59
2023/09/20 16:38:23;;;;;;;1.45;0.38;;;25.10;60.90;;;;;;6378756;27;20039;-59
2023/09/20 16:41:24;;;;;;;0.77;0.40;;;25.10;61.10;;;;;;6384112;27;20852;-59
2023/09/20 16:44:29;;;;;;;0.50;0.38;;;25.20;61.20;;;;;;6377694;27;20043;-60
2023/09/20 16:47:33;;;;;;;0.82;0.50;;;25.30;61.40;;;;;;6386477;27;20126;-60
2023/09/20 16:50:35;;;;;;;0.80;0.50;;;25.30;58.80;;;;;;6386219;27;20046;-60
2023/09/20 16:53:37;;;;;;;1.17;0.47;;;25.40;62.00;;;;;;6386300;27;20043;-60
2023/09/20 16:56:39;;;;;;;1.13;0.45;;;24.20;61.10;;;;;;6386299;27;20051;-59
2023/09/20 16:59:42;;;;;;;1.20;0.40;;;25.40;62.10;;;;;;6387778;27;20050;-60
2023/09/20 17:02:44;;;;;;;1.38;0.52;;;25.20;62.20;;;;;;6370070;27;20039;-60
2023/09/20 17:05:46;;;;;;;0.70;0.50;;;25.10;62.60;;;;;;6360753;27;20043;-60
2023/09/20 17:08:49;;;;;;;0.75;0.43;;;25.10;62.80;;;;;;6368172;27;20039;-60
2023/09/20 17:11:51;;;;;;;0.30;0.30;;;25.10;62.70;;;;;;6385780;27;20161;-59
2023/09/20 17:14:55;;;;;;;0.40;0.30;;;24.90;63.00;;;;;;6384608;27;20070;-59
2023/09/20 17:17:57;;;;;;;0.40;0.30;;;25.10;63.50;;;;;;6386629;27;20095;-60
2023/09/20 17:20:59;;;;;;;0.73;0.40;;;25.10;63.40;;;;;;6387714;27;20043;-59
2023/09/20 17:24:04;;;;;;;0.90;0.68;;;25.00;63.80;;;;;;6388236;27;20047;-59
2023/09/20 17:27:05;;;;;;;0.52;0.30;;;25.10;63.90;;;;;;6387463;27;20499;-59
2023/09/20 17:30:12;;;;;;;0.73;0.30;;;25.10;64.40;;;;;;6388156;27;20111;-59
2023/09/20 17:33:13;;;;;;;0.63;0.35;;;24.80;64.30;;;;;;6388227;27;20054;-59
2023/09/20 17:36:18;;;;;;;1.23;0.50;;;25.10;65.00;;;;;;6384221;27;20795;-59
2023/09/20 17:39:22;;;;;;;0.50;0.40;;;24.70;64.90;;;;;;6380668;27;20077;-59
2023/09/20 17:42:31;;;;;;;1.05;0.43;;;25.10;65.10;;;;;;6362054;27;20131;-59
2023/09/20 17:45:33;;;;;;;0.50;0.28;;;25.40;65.70;;;;;;6387139;27;20058;-60
2023/09/20 17:48:35;;;;;;;0.60;0.40;;;24.90;65.60;;;;;;6375385;27;20050;-59
2023/09/20 17:51:38;;;;;;;0.82;0.30;;;25.00;66.00;;;;;;6380802;27;20100;-59
2023/09/20 17:54:40;;;;;;;0.50;0.30;;;25.00;65.90;;;;;;6366851;27;20043;-59
2023/09/20 17:57:42;;;;;;;0.60;0.40;;;25.00;66.20;;;;;;6361731;28;20043;-59
2023/09/20 18:00:44;;;;;;;0.55;0.45;;;25.00;66.50;;;;;;6361297;28;20735;-59
2023/09/20 18:03:47;;;;;;;0.20;0.20;;;25.10;66.90;;;;;;6343627;28;20128;-59
2023/09/20 18:06:52;;;;;;;0.55;0.30;;;24.90;67.20;;;;;;6361700;28;20047;-59
2023/09/20 18:09:54;;;;;;;0.68;0.30;;;24.90;66.60;;;;;;6362198;28;20051;-59
2023/09/20 18:12:55;;;;;;;0.43;0.32;;;24.90;67.00;;;;;;6325138;28;20058;-59
2023/09/20 18:16:00;;;;;;;0.40;0.20;;;24.90;67.20;;;;;;6362212;28;20051;-59
2023/09/20 18:19:01;;;;;;;1.23;0.40;;;24.90;67.20;;;;;;6370426;27;20689;-59
2023/09/20 18:22:05;;;;;;;0.40;0.28;;;24.70;67.40;;;;;;6368236;27;20889;-59
2023/09/20 18:25:10;;;;;;;1.67;0.40;;;24.80;67.60;;;;;;6370434;27;20884;-59
2023/09/20 18:28:14;;;;;;;0.45;0.30;;;25.20;67.90;;;;;;6367975;27;20067;-59
2023/09/20 18:31:17;;;;;;;0.30;0.20;;;24.80;67.80;;;;;;6370716;27;20046;-59
2023/09/20 18:34:20;;;;;;;0.30;0.30;;;25.10;68.00;;;;;;6366085;27;20054;-59
2023/09/20 18:37:23;;;;;;;0.40;0.30;;;24.80;67.90;;;;;;6374345;27;20081;-59
2023/09/20 18:40:25;;;;;;;0.70;0.32;;;24.70;68.30;;;;;;6382113;27;20621;-59
2023/09/20 18:43:27;;;;;;;0.65;0.45;;;24.60;68.50;;;;;;6379925;27;20046;-59
2023/09/20 18:46:28;;;;;;;0.40;0.20;;;24.80;68.50;;;;;;6401060;27;20758;-59
2023/09/20 18:49:30;;;;;;;0.40;0.40;;;24.90;68.90;;;;;;6387686;27;20042;-59
2023/09/20 18:52:31;;;;;;;0.20;0.20;;;24.80;69.20;;;;;;6387013;27;20050;-59
2023/09/20 18:55:33;;;;;;;0.50;0.25;;;24.50;68.90;;;;;;6401398;27;20035;-59
2023/09/20 18:58:35;;;;;;;0.63;0.50;;;24.80;69.00;;;;;;6377983;27;20056;-59
2023/09/20 19:01:39;;;;;;;0.70;0.20;;;24.70;69.30;;;;;;6369559;27;20039;-59
2023/09/20 19:04:40;;;;;;;0.20;0.20;;;24.70;67.50;;;;;;6374479;27;20041;-59
2023/09/20 19:07:44;;;;;;;0.75;0.40;;;24.70;69.60;;;;;;6397459;27;20038;-59
2023/09/20 19:10:46;;;;;;;0.47;0.30;;;24.80;69.40;;;;;;6374570;27;20047;-58
2023/09/20 19:13:47;;;;;;;0.28;0.20;;;24.70;69.60;;;;;;6398688;27;20046;-58
2023/09/20 19:16:49;;;;;;;0.22;0.20;;;24.70;69.60;;;;;;6387354;27;20042;-57
2023/09/20 19:19:51;;;;;;;0.85;0.30;;;24.60;69.80;;;;;;6386634;27;20050;-58
2023/09/20 19:22:52;;;;;;;0.45;0.28;;;24.60;69.80;;;;;;6390289;27;20038;-60
2023/09/20 19:25:55;;;;;;;0.32;0.22;;;24.40;69.80;;;;;;6387437;27;20547;-59
2023/09/20 19:28:58;;;;;;;0.25;0.22;;;24.60;70.00;;;;;;6386771;27;20039;-59
2023/09/20 19:31:59;;;;;;;0.40;0.20;;;24.70;70.10;;;;;;6389125;27;20729;-59
2023/09/20 19:35:02;;;;;;;0.10;0.10;;;24.60;70.20;;;;;;6407742;27;20046;-59
2023/09/20 19:38:04;;;;;;;0.30;0.20;;;24.60;70.50;;;;;;6397314;27;20199;-59
2023/09/20 19:41:08;;;;;;;0.17;0.17;;;24.50;70.30;;;;;;6391710;27;20043;-59
2023/09/20 19:44:11;;;;;;;0.20;0.20;;;24.60;70.50;;;;;;6372958;27;20521;-59
2023/09/20 19:47:15;;;;;;;0.22;0.20;;;24.90;70.90;;;;;;6390604;27;20043;-58
2023/09/20 19:50:19;;;;;;;0.20;0.20;;;24.70;68.10;;;;;;6388112;27;20039;-59
2023/09/20 19:53:24;;;;;;;0.30;0.20;;;24.60;70.80;;;;;;6385519;27;20047;-59
2023/09/20 19:56:32;;;;;;;0.60;0.40;;;24.30;70.80;;;;;;6371872;27;20057;-59
2023/09/20 19:59:37;;;;;;;0.40;0.10;;;24.40;71.00;;;;;;6401604;27;20042;-59
2023/09/20 20:02:39;;;;;;;0.20;0.10;;;24.50;71.20;;;;;;6401074;27;20047;-59
2023/09/20 20:05:41;;;;;;;0.30;0.25;;;24.40;71.40;;;;;;6390824;27;20050;-59
2023/09/20 20:08:43;;;;;;;0.13;0.13;;;24.50;71.50;;;;;;6399244;27;20094;-59
2023/09/20 20:11:46;;;;;;;0.10;0.10;;;24.90;71.80;;;;;;6372028;27;20096;-59
2023/09/20 20:14:49;;;;;;;0.20;0.10;;;24.40;71.80;;;;;;6394997;27;20043;-59
2023/09/20 20:17:54;;;;;;;0.50;0.20;;;24.40;71.60;;;;;;6391692;27;20185;-59
2023/09/20 20:21:02;;;;;;;0.30;0.30;;;24.50;71.80;;;;;;6397473;27;20892;-59
2023/09/20 20:24:06;;;;;;;0.20;0.20;;;24.40;71.80;;;;;;6412247;27;20042;-59
2023/09/20 20:27:09;;;;;;;0.30;0.28;;;24.50;72.10;;;;;;6414454;27;20098;-59
2023/09/20 20:30:11;;;;;;;0.40;0.22;;;24.50;72.10;;;;;;6416656;27;20171;-59
2023/09/20 20:33:14;;;;;;;0.50;0.20;;;24.10;72.10;;;;;;6404488;27;20519;-59
2023/09/20 20:36:17;;;;;;;0.43;0.20;;;24.10;71.90;;;;;;6394676;27;20058;-58
2023/09/20 20:39:18;;;;;;;0.40;0.22;;;24.40;72.50;;;;;;6390031;27;20050;-59
2023/09/20 20:42:21;;;;;;;0.22;0.20;;;24.50;72.30;;;;;;6390156;27;20039;-59
2023/09/20 20:45:22;;;;;;;0.40;0.28;;;24.50;72.90;;;;;;6391049;27;20050;-58
2023/09/20 20:48:24;;;;;;;0.10;0.10;;;24.30;72.70;;;;;;6390440;27;20042;-59
2023/09/20 20:51:25;;;;;;;0.20;0.10;;;24.40;73.00;;;;;;6372571;27;20043;-59
2023/09/20 20:54:30;;;;;;;0.28;0.20;;;24.40;73.00;;;;;;6387716;27;20499;-59
2023/09/20 20:57:34;;;;;;;0.20;0.20;;;24.30;72.80;;;;;;6393351;27;20692;-59
2023/09/20 21:00:38;;;;;;;0.45;0.20;;;24.40;72.90;;;;;;6406728;27;20146;-59
2023/09/20 21:03:41;;;;;;;0.20;0.20;;;24.40;73.00;;;;;;6371175;27;20756;-61
2023/09/20 21:06:44;;;;;;;0.40;0.22;;;24.40;73.20;;;;;;6340770;27;20047;-59
2023/09/20 21:09:49;;;;;;;0.28;0.17;;;24.40;73.60;;;;;;6311835;28;20440;-59
2023/09/20 21:12:52;;;;;;;0.57;0.40;;;25.90;72.00;;;;;;6313760;28;20040;-59
2023/09/20 21:15:53;;;;;;;0.20;0.20;;;23.90;73.60;;;;;;6312093;28;20430;-59
2023/09/20 21:18:57;;;;;;;0.30;0.20;;;23.90;73.50;;;;;;6333586;28;20043;-59
2023/09/20 21:21:59;;;;;;;0.15;0.15;;;24.20;72.90;;;;;;6317744;28;20497;-58
2023/09/20 21:25:07;;;;;;;0.20;0.10;;;24.20;72.80;;;;;;6336668;28;20112;-59
2023/09/20 21:28:09;;;;;;;0.40;0.20;;;24.20;72.90;;;;;;6315649;28;20097;-59
2023/09/20 21:31:13;;;;;;;0.32;0.20;;;24.30;73.00;;;;;;6312254;28;20078;-59
2023/09/20 21:34:20;;;;;;;0.13;0.13;;;24.20;73.00;;;;;;6310901;28;20515;-59
2023/09/20 21:37:22;;;;;;;0.28;0.20;;;24.10;73.10;;;;;;6314983;28;20101;-59
2023/09/20 21:40:27;;;;;;;0.25;0.20;;;24.30;72.80;;;;;;6313127;28;20040;-59
2023/09/20 21:43:29;;;;;;;0.28;0.20;;;24.20;73.20;;;;;;6317425;28;20052;-59
2023/09/20 21:46:30;;;;;;;0.28;0.20;;;24.20;73.60;;;;;;6313840;28;20051;-59
2023/09/20 21:49:33;;;;;;;0.20;0.20;;;24.00;73.60;;;;;;6310441;28;20056;-59
2023/09/20 21:52:34;;;;;;;0.32;0.20;;;23.60;73.40;;;;;;6309720;28;20118;-59
2023/09/20 21:55:38;;;;;;;0.38;0.30;;;24.10;73.80;;;;;;6321031;28;20168;-59
2023/09/20 21:58:41;;;;;;;0.40;0.13;;;24.10;72.00;;;;;;6289713;28;20071;-59
2023/09/20 22:01:43;;;;;;;0.30;0.20;;;24.20;73.90;;;;;;6327521;28;20078;-59
2023/09/20 22:04:46;;;;;;;0.35;0.28;;;24.10;74.20;;;;;;6323093;28;20048;-59
2023/09/20 22:07:49;;;;;;;0.20;0.10;;;24.30;74.40;;;;;;6326842;28;20068;-59
2023/09/20 22:10:56;;;;;;;0.75;0.40;;;24.10;74.50;;;;;;6310227;28;20832;-59
2023/09/20 22:14:01;;;;;;;0.20;0.20;;;24.00;74.90;;;;;;6324366;28;20044;-59
2023/09/20 22:17:03;;;;;;;0.22;0.20;;;24.10;75.10;;;;;;6328790;28;20481;-59
2023/09/20 22:20:07;;;;;;;0.40;0.20;;;23.80;75.00;;;;;;6307813;28;20067;-59
2023/09/20 22:23:11;;;;;;;0.20;0.20;;;23.60;75.20;;;;;;6313262;28;20428;-59
2023/09/20 22:26:15;;;;;;;0.20;0.20;;;24.00;75.50;;;;;;6308787;28;20144;-59
2023/09/20 22:29:18;;;;;;;0.20;0.10;;;24.50;76.10;;;;;;6325951;28;20043;-59
2023/09/20 22:32:20;;;;;;;0.47;0.20;;;24.20;75.80;;;;;;6321152;28;20054;-59
2023/09/20 22:35:22;;;;;;;0.30;0.20;;;24.00;76.00;;;;;;6336610;28;20539;-59
2023/09/20 22:38:23;;;;;;;0.20;0.20;;;23.80;75.50;;;;;;6323962;28;20044;-59
2023/09/20 22:41:25;;;;;;;0.20;0.20;;;24.00;75.90;;;;;;6312279;28;20758;-58
2023/09/20 22:44:27;;;;;;;0.32;0.20;;;23.70;75.80;;;;;;6311510;28;20051;-59
2023/09/20 22:47:30;;;;;;;0.47;0.20;;;24.00;76.20;;;;;;6312538;28;20122;-58
2023/09/20 22:50:38;;;;;;;1.05;0.20;;;23.90;76.60;;;;;;6325566;28;20054;-59
2023/09/20 22:53:39;;;;;;;0.20;0.20;;;23.90;76.80;;;;;;6317856;28;20044;-59
2023/09/20 22:56:42;;;;;;;0.20;0.20;;;24.10;76.50;;;;;;6311209;28;20074;-59
2023/09/20 22:59:47;;;;;;;0.30;0.28;;;23.90;76.40;;;;;;6310179;28;20749;-59
2023/09/20 23:02:49;;;;;;;0.38;0.28;;;24.10;76.60;;;;;;6311807;28;20544;-59
2023/09/20 23:05:51;;;;;;;0.22;0.20;;;23.90;76.60;;;;;;6311498;28;20048;-59
2023/09/20 23:08:54;;;;;;;0.22;0.20;;;23.90;76.80;;;;;;6315192;28;20044;-59
2023/09/20 23:11:56;;;;;;;0.30;0.20;;;23.70;76.30;;;;;;6316440;28;20055;-59
2023/09/20 23:14:58;;;;;;;0.55;0.30;;;24.20;76.50;;;;;;6327366;28;20105;-59
2023/09/20 23:18:02;;;;;;;0.57;0.30;;;23.80;76.50;;;;;;6314135;28;20509;-58
2023/09/20 23:21:04;;;;;;;0.40;0.20;;;23.90;76.60;;;;;;6313930;28;20079;-58
2023/09/20 23:24:06;;;;;;;0.40;0.20;;;23.90;76.80;;;;;;6319296;28;20071;-58
2023/09/20 23:27:09;;;;;;;0.95;0.40;;;23.90;76.70;;;;;;6316307;28;20043;-58
2023/09/20 23:30:12;;;;;;;0.35;0.30;;;23.90;77.00;;;;;;6316645;28;20101;-59
2023/09/20 23:33:21;;;;;;;0.50;0.30;;;23.90;76.80;;;;;;6312348;28;20048;-58
2023/09/20 23:36:24;;;;;;;0.30;0.30;;;23.70;76.90;;;;;;6313243;28;20092;-59
2023/09/20 23:39:29;;;;;;;0.38;0.30;;;23.90;77.20;;;;;;6316853;28;20051;-58
2023/09/20 23:42:31;;;;;;;0.50;0.32;;;23.80;77.30;;;;;;6312436;28;20050;-59
2023/09/20 23:45:34;;;;;;;0.40;0.30;;;23.80;77.20;;;;;;6317435;28;20131;-58
2023/09/20 23:48:41;;;;;;;0.52;0.40;;;23.50;77.20;;;;;;6323391;28;20078;-58
2023/09/20 23:51:45;;;;;;;0.50;0.28;;;24.00;77.20;;;;;;6314946;28;20056;-58
2023/09/20 23:54:49;;;;;;;0.88;0.30;;;23.50;76.90;;;;;;6316946;28;20048;-58
2023/09/20 23:57:52;;;;;;;0.30;0.22;;;23.60;77.10;;;;;;6335680;28;20047;-58
